<?xml version="1.0" encoding="UTF-8" standalone="no" ?>
<gpx xmlns="http://www.topografix.com/GPX/1/1" xmlns:xsi="http://www.w3.org/2001/XMLSchema-instance" xsi:schemaLocation="http://www.topografix.com/GPX/1/1 http://www.topografix.com/GPX/1/1/gpx.xsd" version="1.1" creator="VisuGPX - https://www.visugpx.com">
  <metadata>
    <name>Le village troglodytique du Barry</name>
    <desc><![CDATA[randonnée founit par visorando]]></desc>
  </metadata>
  <trk>
    <name><![CDATA[Le village troglodytique du Barry]]></name>
    <trkseg>
      <trkpt lat="44.32626" lon="4.76329">
        <ele>277</ele>
        <time>2016-06-17T14:42:59+02:00</time>
      </trkpt>
      <trkpt lat="44.32603" lon="4.76306">
        <ele>276</ele>
        <time>2016-06-17T14:43:04+02:00</time>
      </trkpt>
      <trkpt lat="44.32585" lon="4.76262">
        <ele>275</ele>
        <time>2016-06-17T14:43:09+02:00</time>
      </trkpt>
      <trkpt lat="44.32571" lon="4.76215">
        <ele>273</ele>
        <time>2016-06-17T14:43:14+02:00</time>
      </trkpt>
      <trkpt lat="44.32559" lon="4.76181">
        <ele>273</ele>
        <time>2016-06-17T14:43:19+02:00</time>
      </trkpt>
      <trkpt lat="44.32573" lon="4.7614">
        <ele>267</ele>
        <time>2016-06-17T14:43:24+02:00</time>
      </trkpt>
      <trkpt lat="44.32571" lon="4.76115">
        <ele>265</ele>
        <time>2016-06-17T14:43:29+02:00</time>
      </trkpt>
      <trkpt lat="44.32553" lon="4.7607">
        <ele>264</ele>
        <time>2016-06-17T14:43:34+02:00</time>
      </trkpt>
      <trkpt lat="44.32511" lon="4.76037">
        <ele>267</ele>
        <time>2016-06-17T14:43:39+02:00</time>
      </trkpt>
      <trkpt lat="44.32487" lon="4.76033">
        <ele>268</ele>
        <time>2016-06-17T14:43:44+02:00</time>
      </trkpt>
      <trkpt lat="44.32453" lon="4.7604">
        <ele>269</ele>
        <time>2016-06-17T14:43:49+02:00</time>
      </trkpt>
      <trkpt lat="44.32415" lon="4.76055">
        <ele>273</ele>
        <time>2016-06-17T14:43:54+02:00</time>
      </trkpt>
      <trkpt lat="44.32378" lon="4.76059">
        <ele>274</ele>
        <time>2016-06-17T14:43:59+02:00</time>
      </trkpt>
      <trkpt lat="44.32342" lon="4.76053">
        <ele>272</ele>
        <time>2016-06-17T14:44:04+02:00</time>
      </trkpt>
      <trkpt lat="44.32307" lon="4.76043">
        <ele>271</ele>
        <time>2016-06-17T14:44:09+02:00</time>
      </trkpt>
      <trkpt lat="44.32271" lon="4.76031">
        <ele>271</ele>
        <time>2016-06-17T14:44:14+02:00</time>
      </trkpt>
      <trkpt lat="44.32239" lon="4.76005">
        <ele>267</ele>
        <time>2016-06-17T14:44:19+02:00</time>
      </trkpt>
      <trkpt lat="44.32217" lon="4.75966">
        <ele>262</ele>
        <time>2016-06-17T14:44:24+02:00</time>
      </trkpt>
      <trkpt lat="44.32192" lon="4.75929">
        <ele>259</ele>
        <time>2016-06-17T14:44:29+02:00</time>
      </trkpt>
      <trkpt lat="44.32163" lon="4.75896">
        <ele>259</ele>
        <time>2016-06-17T14:44:34+02:00</time>
      </trkpt>
      <trkpt lat="44.32128" lon="4.75874">
        <ele>260</ele>
        <time>2016-06-17T14:44:39+02:00</time>
      </trkpt>
      <trkpt lat="44.32098" lon="4.75852">
        <ele>261</ele>
        <time>2016-06-17T14:44:44+02:00</time>
      </trkpt>
      <trkpt lat="44.32068" lon="4.75834">
        <ele>260</ele>
        <time>2016-06-17T14:44:49+02:00</time>
      </trkpt>
      <trkpt lat="44.32035" lon="4.75829">
        <ele>259</ele>
        <time>2016-06-17T14:44:54+02:00</time>
      </trkpt>
      <trkpt lat="44.32008" lon="4.75832">
        <ele>260</ele>
        <time>2016-06-17T14:44:59+02:00</time>
      </trkpt>
      <trkpt lat="44.31957" lon="4.75827">
        <ele>261</ele>
        <time>2016-06-17T14:45:04+02:00</time>
      </trkpt>
      <trkpt lat="44.31915" lon="4.75833">
        <ele>263</ele>
        <time>2016-06-17T14:45:09+02:00</time>
      </trkpt>
      <trkpt lat="44.31878" lon="4.75843">
        <ele>256</ele>
        <time>2016-06-17T14:45:14+02:00</time>
      </trkpt>
      <trkpt lat="44.31837" lon="4.75836">
        <ele>251</ele>
        <time>2016-06-17T14:45:19+02:00</time>
      </trkpt>
      <trkpt lat="44.31797" lon="4.75796">
        <ele>244</ele>
        <time>2016-06-17T14:45:24+02:00</time>
      </trkpt>
      <trkpt lat="44.31782" lon="4.75767">
        <ele>243</ele>
        <time>2016-06-17T14:45:29+02:00</time>
      </trkpt>
      <trkpt lat="44.31761" lon="4.75733">
        <ele>239</ele>
        <time>2016-06-17T14:45:34+02:00</time>
      </trkpt>
      <trkpt lat="44.31738" lon="4.75694">
        <ele>235</ele>
        <time>2016-06-17T14:45:39+02:00</time>
      </trkpt>
      <trkpt lat="44.31703" lon="4.75678">
        <ele>227</ele>
        <time>2016-06-17T14:45:44+02:00</time>
      </trkpt>
      <trkpt lat="44.31672" lon="4.75649">
        <ele>221</ele>
        <time>2016-06-17T14:45:49+02:00</time>
      </trkpt>
      <trkpt lat="44.31678" lon="4.75598">
        <ele>220</ele>
        <time>2016-06-17T14:45:54+02:00</time>
      </trkpt>
      <trkpt lat="44.31673" lon="4.75545">
        <ele>208</ele>
        <time>2016-06-17T14:45:59+02:00</time>
      </trkpt>
      <trkpt lat="44.31676" lon="4.75596">
        <ele>219</ele>
        <time>2016-06-17T14:46:04+02:00</time>
      </trkpt>
      <trkpt lat="44.31672" lon="4.75647">
        <ele>221</ele>
        <time>2016-06-17T14:46:09+02:00</time>
      </trkpt>
      <trkpt lat="44.31663" lon="4.75633">
        <ele>218</ele>
        <time>2016-06-17T14:46:14+02:00</time>
      </trkpt>
      <trkpt lat="44.31656" lon="4.75557">
        <ele>210</ele>
        <time>2016-06-17T14:46:19+02:00</time>
      </trkpt>
      <trkpt lat="44.31632" lon="4.7557">
        <ele>208</ele>
        <time>2016-06-17T14:46:24+02:00</time>
      </trkpt>
      <trkpt lat="44.31624" lon="4.75619">
        <ele>209</ele>
        <time>2016-06-17T14:46:29+02:00</time>
      </trkpt>
      <trkpt lat="44.31635" lon="4.75667">
        <ele>211</ele>
        <time>2016-06-17T14:46:34+02:00</time>
      </trkpt>
      <trkpt lat="44.31659" lon="4.75705">
        <ele>211</ele>
        <time>2016-06-17T14:46:39+02:00</time>
      </trkpt>
      <trkpt lat="44.31693" lon="4.75725">
        <ele>218</ele>
        <time>2016-06-17T14:46:44+02:00</time>
      </trkpt>
      <trkpt lat="44.31709" lon="4.75764">
        <ele>218</ele>
        <time>2016-06-17T14:46:49+02:00</time>
      </trkpt>
      <trkpt lat="44.31727" lon="4.75809">
        <ele>217</ele>
        <time>2016-06-17T14:46:54+02:00</time>
      </trkpt>
      <trkpt lat="44.31752" lon="4.75847">
        <ele>220</ele>
        <time>2016-06-17T14:46:59+02:00</time>
      </trkpt>
      <trkpt lat="44.31773" lon="4.75949">
        <ele>219</ele>
        <time>2016-06-17T14:47:04+02:00</time>
      </trkpt>
      <trkpt lat="44.31745" lon="4.75946">
        <ele>211</ele>
        <time>2016-06-17T14:47:09+02:00</time>
      </trkpt>
      <trkpt lat="44.31714" lon="4.75972">
        <ele>209</ele>
        <time>2016-06-17T14:47:14+02:00</time>
      </trkpt>
      <trkpt lat="44.31687" lon="4.76008">
        <ele>212</ele>
        <time>2016-06-17T14:47:19+02:00</time>
      </trkpt>
      <trkpt lat="44.31655" lon="4.76024">
        <ele>212</ele>
        <time>2016-06-17T14:47:24+02:00</time>
      </trkpt>
      <trkpt lat="44.31633" lon="4.76059">
        <ele>219</ele>
        <time>2016-06-17T14:47:29+02:00</time>
      </trkpt>
      <trkpt lat="44.31599" lon="4.76075">
        <ele>221</ele>
        <time>2016-06-17T14:47:34+02:00</time>
      </trkpt>
      <trkpt lat="44.31667" lon="4.76112">
        <ele>227</ele>
        <time>2016-06-17T14:47:39+02:00</time>
      </trkpt>
      <trkpt lat="44.31702" lon="4.76101">
        <ele>232</ele>
        <time>2016-06-17T14:47:44+02:00</time>
      </trkpt>
      <trkpt lat="44.31736" lon="4.76078">
        <ele>234</ele>
        <time>2016-06-17T14:47:49+02:00</time>
      </trkpt>
      <trkpt lat="44.31769" lon="4.76057">
        <ele>234</ele>
        <time>2016-06-17T14:47:54+02:00</time>
      </trkpt>
      <trkpt lat="44.31802" lon="4.76051">
        <ele>237</ele>
        <time>2016-06-17T14:47:59+02:00</time>
      </trkpt>
      <trkpt lat="44.31807" lon="4.76084">
        <ele>242</ele>
        <time>2016-06-17T14:48:04+02:00</time>
      </trkpt>
      <trkpt lat="44.31809" lon="4.76126">
        <ele>240</ele>
        <time>2016-06-17T14:48:09+02:00</time>
      </trkpt>
      <trkpt lat="44.31844" lon="4.76163">
        <ele>243</ele>
        <time>2016-06-17T14:48:14+02:00</time>
      </trkpt>
      <trkpt lat="44.31877" lon="4.76198">
        <ele>246</ele>
        <time>2016-06-17T14:48:19+02:00</time>
      </trkpt>
      <trkpt lat="44.31903" lon="4.76232">
        <ele>247</ele>
        <time>2016-06-17T14:48:24+02:00</time>
      </trkpt>
      <trkpt lat="44.31932" lon="4.76264">
        <ele>248</ele>
        <time>2016-06-17T14:48:29+02:00</time>
      </trkpt>
      <trkpt lat="44.31955" lon="4.76304">
        <ele>247</ele>
        <time>2016-06-17T14:48:34+02:00</time>
      </trkpt>
      <trkpt lat="44.31983" lon="4.76336">
        <ele>248</ele>
        <time>2016-06-17T14:48:39+02:00</time>
      </trkpt>
      <trkpt lat="44.32012" lon="4.76368">
        <ele>246</ele>
        <time>2016-06-17T14:48:44+02:00</time>
      </trkpt>
      <trkpt lat="44.32041" lon="4.764">
        <ele>246</ele>
        <time>2016-06-17T14:48:49+02:00</time>
      </trkpt>
      <trkpt lat="44.32062" lon="4.76441">
        <ele>244</ele>
        <time>2016-06-17T14:48:54+02:00</time>
      </trkpt>
      <trkpt lat="44.32087" lon="4.76478">
        <ele>246</ele>
        <time>2016-06-17T14:48:59+02:00</time>
      </trkpt>
      <trkpt lat="44.32112" lon="4.76517">
        <ele>248</ele>
        <time>2016-06-17T14:49:04+02:00</time>
      </trkpt>
      <trkpt lat="44.32134" lon="4.76558">
        <ele>250</ele>
        <time>2016-06-17T14:49:09+02:00</time>
      </trkpt>
      <trkpt lat="44.32128" lon="4.76608">
        <ele>251</ele>
        <time>2016-06-17T14:49:14+02:00</time>
      </trkpt>
      <trkpt lat="44.32101" lon="4.76641">
        <ele>252</ele>
        <time>2016-06-17T14:49:19+02:00</time>
      </trkpt>
      <trkpt lat="44.3208" lon="4.76684">
        <ele>254</ele>
        <time>2016-06-17T14:49:24+02:00</time>
      </trkpt>
      <trkpt lat="44.32076" lon="4.76735">
        <ele>257</ele>
        <time>2016-06-17T14:49:29+02:00</time>
      </trkpt>
      <trkpt lat="44.321" lon="4.76774">
        <ele>261</ele>
        <time>2016-06-17T14:49:34+02:00</time>
      </trkpt>
      <trkpt lat="44.32125" lon="4.76811">
        <ele>262</ele>
        <time>2016-06-17T14:49:39+02:00</time>
      </trkpt>
      <trkpt lat="44.3214" lon="4.76838">
        <ele>263</ele>
        <time>2016-06-17T14:49:44+02:00</time>
      </trkpt>
      <trkpt lat="44.32195" lon="4.76817">
        <ele>270</ele>
        <time>2016-06-17T14:49:49+02:00</time>
      </trkpt>
      <trkpt lat="44.32231" lon="4.76802">
        <ele>271</ele>
        <time>2016-06-17T14:49:54+02:00</time>
      </trkpt>
      <trkpt lat="44.32251" lon="4.768">
        <ele>272</ele>
        <time>2016-06-17T14:49:59+02:00</time>
      </trkpt>
      <trkpt lat="44.32291" lon="4.76786">
        <ele>273</ele>
        <time>2016-06-17T14:50:04+02:00</time>
      </trkpt>
      <trkpt lat="44.32333" lon="4.76767">
        <ele>274</ele>
        <time>2016-06-17T14:50:09+02:00</time>
      </trkpt>
      <trkpt lat="44.32382" lon="4.76744">
        <ele>275</ele>
        <time>2016-06-17T14:50:14+02:00</time>
      </trkpt>
      <trkpt lat="44.32357" lon="4.76698">
        <ele>276</ele>
        <time>2016-06-17T14:50:19+02:00</time>
      </trkpt>
      <trkpt lat="44.32338" lon="4.76635">
        <ele>277</ele>
        <time>2016-06-17T14:50:24+02:00</time>
      </trkpt>
      <trkpt lat="44.32341" lon="4.76578">
        <ele>278</ele>
        <time>2016-06-17T14:50:29+02:00</time>
      </trkpt>
      <trkpt lat="44.32353" lon="4.76559">
        <ele>280</ele>
        <time>2016-06-17T14:50:34+02:00</time>
      </trkpt>
      <trkpt lat="44.32381" lon="4.76556">
        <ele>282</ele>
        <time>2016-06-17T14:50:39+02:00</time>
      </trkpt>
      <trkpt lat="44.32426" lon="4.76556">
        <ele>283</ele>
        <time>2016-06-17T14:50:44+02:00</time>
      </trkpt>
      <trkpt lat="44.3246" lon="4.76552">
        <ele>282</ele>
        <time>2016-06-17T14:50:49+02:00</time>
      </trkpt>
      <trkpt lat="44.32497" lon="4.76548">
        <ele>281</ele>
        <time>2016-06-17T14:50:54+02:00</time>
      </trkpt>
      <trkpt lat="44.32534" lon="4.76545">
        <ele>281</ele>
        <time>2016-06-17T14:50:59+02:00</time>
      </trkpt>
      <trkpt lat="44.3257" lon="4.76547">
        <ele>282</ele>
        <time>2016-06-17T14:51:04+02:00</time>
      </trkpt>
      <trkpt lat="44.32606" lon="4.7655">
        <ele>282</ele>
        <time>2016-06-17T14:51:09+02:00</time>
      </trkpt>
      <trkpt lat="44.32649" lon="4.76559">
        <ele>280</ele>
        <time>2016-06-17T14:51:14+02:00</time>
      </trkpt>
      <trkpt lat="44.32673" lon="4.76568">
        <ele>279</ele>
        <time>2016-06-17T14:51:19+02:00</time>
      </trkpt>
      <trkpt lat="44.32702" lon="4.76579">
        <ele>278</ele>
        <time>2016-06-17T14:51:24+02:00</time>
      </trkpt>
      <trkpt lat="44.32689" lon="4.76489">
        <ele>281</ele>
        <time>2016-06-17T14:51:29+02:00</time>
      </trkpt>
      <trkpt lat="44.32678" lon="4.76439">
        <ele>282</ele>
        <time>2016-06-17T14:51:34+02:00</time>
      </trkpt>
      <trkpt lat="44.3265" lon="4.76391">
        <ele>281</ele>
        <time>2016-06-17T14:51:39+02:00</time>
      </trkpt>
      <trkpt lat="44.32627" lon="4.76334">
        <ele>277</ele>
        <time>2016-06-17T14:51:44+02:00</time>
      </trkpt>
    </trkseg>
  </trk>
</gpx>